Ningbo Seal — VRJD3 — position and weather

sailwx.info

Track history (hours):
 
Tides and Currents Weather Stations Pressure Air Temp Water Temp Dewpoint Dewpoint Depression Visibility Wind Speed Wind Dir Waves Ship Positions

Ningbo Seal

Last reported at 2016-May-25 18:33 UTC. Time now 2016-May-26 00:38 UTC.
Position N 37°27' E 016°19'.

Length 224 m; draft 14.3 m.

Type: Cargo ship. MMSI: 477628100.

Date/timePositionNaut miles runAvg speedWind from/ knotsBaromVisibWave heightAir tempDewpointWater temp
2016-May-25 18:33N 37°27' E 016°19'1211.8
2016-May-25 17:33N 37°19' E 016°08'1211.7
2016-May-25 16:33N 37°10' E 015°59'5011.2
2016-May-25 12:04N 36°33' E 015°16'611.3
2016-May-25 11:33N 36°33' E 015°09'1111.3
2016-May-25 10:33N 36°34' E 014°55'1111.4
2016-May-25 09:33N 36°36' E 014°41'1211.7
2016-May-25 08:33N 36°38' E 014°26'1211.8
2016-May-25 07:33N 36°40' E 014°12'1211.6
2016-May-25 06:33N 36°43' E 013°58'1211.8
2016-May-25 05:33N 36°45' E 013°44'1212.0
2016-May-25 04:33N 36°47' E 013°29'1111.5
2016-May-25 03:33N 36°50' E 013°15'1111.0
2016-May-25 02:33N 36°52' E 013°01'1111.3
2016-May-25 01:33N 36°54' E 012°47'1211.7
2016-May-25 00:29N 36°56' E 012°32'1411.8
2016-May-24 23:17N 36°59' E 012°15'911.7
2016-May-24 22:33N 37°02' E 012°05'1611.5
2016-May-24 21:10N 37°09' E 011°47'3411.1
2016-May-24 18:08N 37°23' E 011°09'711.5
2016-May-24 17:33N 37°26' E 011°01'1211.6
2016-May-24 16:33N 37°29' E 010°47'48410.9
2016-May-22 20:13N 36°40' E 000°43'1111.8
2016-May-22 19:16N 36°38' E 000°29'811.8
2016-May-22 18:33N 36°37' E 000°19'1211.7
2016-May-22 17:33N 36°35' E 000°04'1211.7
2016-May-22 16:31N 36°33' W 000°11'1111.9
2016-May-22 15:33N 36°31' W 000°25'1212.2
2016-May-22 14:33N 36°29' W 000°40'1812.2
2016-May-22 13:05N 36°26' W 001°02'20311.5
2016-May-21 19:30N 35°60' W 005°11'1313.4
2016-May-21 18:34N 35°58' W 005°26'5911.4
2016-May-21 13:21N 35°28' W 006°29'911.1
2016-May-21 12:33N 35°22' W 006°37'14311.6
2016-May-21 00:16N 33°40' W 008°39'4211.2
2016-May-20 20:33N 33°10' W 009°14'2311.4
2016-May-20 18:32N 32°54' W 009°34'  
2016-May-16 00:32N 16°51' W 018°05'2310.7
2016-May-15 22:23N 16°28' W 018°05'910.7
2016-May-15 21:32N 16°19' W 018°05'1110.7
2016-May-15 20:33N 16°08' W 018°05'1110.9
2016-May-15 19:32N 15°57' W 018°05'  
Track history (hours):
 
Tides and Currents Weather Stations Pressure Air Temp Water Temp Dewpoint Dewpoint Depression Visibility Wind Speed Wind Dir Waves Ship Positions

Ningbo Seal

Last reported at 2016-May-25 18:33 UTC. Time now 2016-May-26 00:38 UTC.
Position N 37°27' E 016°19'.

Length 224 m; draft 14.3 m.

Type: Cargo ship. MMSI: 477628100.

Date/timePositionNaut miles runAvg speedWind from/ knotsBaromVisibWave heightAir tempDewpointWater temp
2016-May-25 18:33N 37°27' E 016°19'1211.8
2016-May-25 17:33N 37°19' E 016°08'1211.7
2016-May-25 16:33N 37°10' E 015°59'5011.2
2016-May-25 12:04N 36°33' E 015°16'611.3
2016-May-25 11:33N 36°33' E 015°09'1111.3
2016-May-25 10:33N 36°34' E 014°55'1111.4
2016-May-25 09:33N 36°36' E 014°41'1211.7
2016-May-25 08:33N 36°38' E 014°26'1211.8
2016-May-25 07:33N 36°40' E 014°12'1211.6
2016-May-25 06:33N 36°43' E 013°58'1211.8
2016-May-25 05:33N 36°45' E 013°44'1212.0
2016-May-25 04:33N 36°47' E 013°29'1111.5
2016-May-25 03:33N 36°50' E 013°15'1111.0
2016-May-25 02:33N 36°52' E 013°01'1111.3
2016-May-25 01:33N 36°54' E 012°47'1211.7
2016-May-25 00:29N 36°56' E 012°32'1411.8
2016-May-24 23:17N 36°59' E 012°15'911.7
2016-May-24 22:33N 37°02' E 012°05'1611.5
2016-May-24 21:10N 37°09' E 011°47'3411.1
2016-May-24 18:08N 37°23' E 011°09'711.5
2016-May-24 17:33N 37°26' E 011°01'1211.6
2016-May-24 16:33N 37°29' E 010°47'48410.9
2016-May-22 20:13N 36°40' E 000°43'1111.8
2016-May-22 19:16N 36°38' E 000°29'811.8
2016-May-22 18:33N 36°37' E 000°19'1211.7
2016-May-22 17:33N 36°35' E 000°04'1211.7
2016-May-22 16:31N 36°33' W 000°11'1111.9
2016-May-22 15:33N 36°31' W 000°25'1212.2
2016-May-22 14:33N 36°29' W 000°40'1812.2
2016-May-22 13:05N 36°26' W 001°02'20311.5
2016-May-21 19:30N 35°60' W 005°11'1313.4
2016-May-21 18:34N 35°58' W 005°26'5911.4
2016-May-21 13:21N 35°28' W 006°29'911.1
2016-May-21 12:33N 35°22' W 006°37'14311.6
2016-May-21 00:16N 33°40' W 008°39'4211.2
2016-May-20 20:33N 33°10' W 009°14'2311.4
2016-May-20 18:32N 32°54' W 009°34'  
2016-May-16 00:32N 16°51' W 018°05'2310.7
2016-May-15 22:23N 16°28' W 018°05'910.7
2016-May-15 21:32N 16°19' W 018°05'1110.7
2016-May-15 20:33N 16°08' W 018°05'1110.9
2016-May-15 19:32N 15°57' W 018°05'  

Dump ship's entire track history